sensor_id;sensor_type;location;lat;lon;timestamp;temperature;humidity
1107;DHT22;540;49.448;8.612;2023-08-30T00:01:55;16.50;99.90
1107;DHT22;540;49.448;8.612;2023-08-30T00:04:23;16.60;99.90
1107;DHT22;540;49.448;8.612;2023-08-30T00:06:51;16.50;99.90
1107;DHT22;540;49.448;8.612;2023-08-30T00:09:18;16.40;99.90
1107;DHT22;540;49.448;8.612;2023-08-30T00:11:46;16.60;99.90
1107;DHT22;540;49.448;8.612;2023-08-30T00:14:16;16.40;99.90
1107;DHT22;540;49.448;8.612;2023-08-30T00:16:43;16.30;99.90
1107;DHT22;540;49.448;8.612;2023-08-30T00:19:11;16.40;99.90
1107;DHT22;540;49.448;8.612;2023-08-30T00:21:39;16.40;99.90
1107;DHT22;540;49.448;8.612;2023-08-30T00:24:07;16.30;99.90
1107;DHT22;540;49.448;8.612;2023-08-30T00:26:35;16.60;99.90
1107;DHT22;540;49.448;8.612;2023-08-30T00:29:02;16.30;99.90
1107;DHT22;540;49.448;8.612;2023-08-30T00:31:32;16.20;99.90
1107;DHT22;540;49.448;8.612;2023-08-30T00:33:59;16.30;99.90
1107;DHT22;540;49.448;8.612;2023-08-30T00:36:27;16.60;99.90
1107;DHT22;540;49.448;8.612;2023-08-30T00:38:55;16.40;99.90
1107;DHT22;540;49.448;8.612;2023-08-30T00:41:23;16.20;99.90
1107;DHT22;540;49.448;8.612;2023-08-30T00:43:51;16.50;99.90
1107;DHT22;540;49.448;8.612;2023-08-30T00:46:19;16.10;99.90
1107;DHT22;540;49.448;8.612;2023-08-30T00:48:48;16.20;99.90
1107;DHT22;540;49.448;8.612;2023-08-30T00:51:16;16.40;99.90
1107;DHT22;540;49.448;8.612;2023-08-30T00:53:44;16.40;99.90
1107;DHT22;540;49.448;8.612;2023-08-30T00:56:12;16.50;99.90
1107;DHT22;540;49.448;8.612;2023-08-30T00:58:40;16.30;99.90
1107;DHT22;540;49.448;8.612;2023-08-30T01:01:08;16.40;99.90
1107;DHT22;540;49.448;8.612;2023-08-30T01:03:36;16.10;99.90
1107;DHT22;540;49.448;8.612;2023-08-30T01:06:06;16.30;99.90
1107;DHT22;540;49.448;8.612;2023-08-30T01:08:35;16.10;99.90
1107;DHT22;540;49.448;8.612;2023-08-30T01:11:11;16.30;99.90
1107;DHT22;540;49.448;8.612;2023-08-30T01:13:40;16.30;99.90
1107;DHT22;540;49.448;8.612;2023-08-30T01:16:10;16.10;99.90
1107;DHT22;540;49.448;8.612;2023-08-30T01:18:39;16.00;99.90
1107;DHT22;540;49.448;8.612;2023-08-30T01:21:17;16.00;99.90
1107;DHT22;540;49.448;8.612;2023-08-30T01:23:56;16.30;99.90
1107;DHT22;540;49.448;8.612;2023-08-30T01:26:34;16.20;99.90
1107;DHT22;540;49.448;8.612;2023-08-30T01:29:09;16.10;99.90
1107;DHT22;540;49.448;8.612;2023-08-30T01:31:38;16.30;99.90
1107;DHT22;540;49.448;8.612;2023-08-30T01:34:08;16.10;99.90
1107;DHT22;540;49.448;8.612;2023-08-30T01:36:36;16.40;99.90
1107;DHT22;540;49.448;8.612;2023-08-30T01:39:05;16.30;99.90
1107;DHT22;540;49.448;8.612;2023-08-30T01:41:35;16.20;99.90
1107;DHT22;540;49.448;8.612;2023-08-30T01:44:06;16.20;99.90
1107;DHT22;540;49.448;8.612;2023-08-30T01:46:36;16.30;99.90
1107;DHT22;540;49.448;8.612;2023-08-30T01:49:06;15.90;99.90
1107;DHT22;540;49.448;8.612;2023-08-30T01:51:34;16.10;99.90
1107;DHT22;540;49.448;8.612;2023-08-30T01:54:03;16.40;99.90
1107;DHT22;540;49.448;8.612;2023-08-30T01:56:32;16.20;99.90
1107;DHT22;540;49.448;8.612;2023-08-30T01:59:00;16.20;99.90
1107;DHT22;540;49.448;8.612;2023-08-30T02:01:29;16.30;99.90
1107;DHT22;540;49.448;8.612;2023-08-30T02:03:57;16.40;99.90
1107;DHT22;540;49.448;8.612;2023-08-30T02:06:31;16.30;99.90
1107;DHT22;540;49.448;8.612;2023-08-30T02:09:12;16.40;99.90
1107;DHT22;540;49.448;8.612;2023-08-30T02:11:43;16.50;99.90
1107;DHT22;540;49.448;8.612;2023-08-30T02:14:13;16.30;99.90
1107;DHT22;540;49.448;8.612;2023-08-30T02:16:46;16.20;99.90
1107;DHT22;540;49.448;8.612;2023-08-30T02:19:15;16.10;99.90
1107;DHT22;540;49.448;8.612;2023-08-30T02:21:43;16.20;99.90
1107;DHT22;540;49.448;8.612;2023-08-30T02:24:11;16.50;99.90
1107;DHT22;540;49.448;8.612;2023-08-30T02:26:39;16.20;99.90
1107;DHT22;540;49.448;8.612;2023-08-30T02:29:06;16.20;99.90
1107;DHT22;540;49.448;8.612;2023-08-30T02:31:36;15.80;99.90
1107;DHT22;540;49.448;8.612;2023-08-30T02:34:05;16.40;99.90
1107;DHT22;540;49.448;8.612;2023-08-30T02:36:33;16.20;99.90
1107;DHT22;540;49.448;8.612;2023-08-30T02:39:15;16.10;99.90
1107;DHT22;540;49.448;8.612;2023-08-30T02:41:42;16.20;99.90
1107;DHT22;540;49.448;8.612;2023-08-30T02:44:11;16.30;99.90
1107;DHT22;540;49.448;8.612;2023-08-30T02:46:39;16.10;99.90
1107;DHT22;540;49.448;8.612;2023-08-30T02:49:09;15.90;99.90
1107;DHT22;540;49.448;8.612;2023-08-30T02:51:37;16.00;99.90
1107;DHT22;540;49.448;8.612;2023-08-30T02:54:06;15.80;99.90
1107;DHT22;540;49.448;8.612;2023-08-30T02:56:33;16.10;99.90
1107;DHT22;540;49.448;8.612;2023-08-30T02:59:01;16.20;99.90
1107;DHT22;540;49.448;8.612;2023-08-30T03:01:29;16.30;99.90
1107;DHT22;540;49.448;8.612;2023-08-30T03:03:57;16.00;99.90
1107;DHT22;540;49.448;8.612;2023-08-30T03:06:26;15.90;99.90
1107;DHT22;540;49.448;8.612;2023-08-30T03:08:54;16.20;99.90
1107;DHT22;540;49.448;8.612;2023-08-30T03:11:22;16.30;99.90
1107;DHT22;540;49.448;8.612;2023-08-30T03:13:50;15.90;99.90
1107;DHT22;540;49.448;8.612;2023-08-30T03:16:18;15.70;99.90
1107;DHT22;540;49.448;8.612;2023-08-30T03:18:46;15.90;99.90
1107;DHT22;540;49.448;8.612;2023-08-30T03:21:14;16.20;99.90
1107;DHT22;540;49.448;8.612;2023-08-30T03:23:43;16.00;99.90
1107;DHT22;540;49.448;8.612;2023-08-30T03:26:12;15.80;99.90
1107;DHT22;540;49.448;8.612;2023-08-30T03:28:40;15.70;99.90
1107;DHT22;540;49.448;8.612;2023-08-30T03:31:12;15.70;99.90
1107;DHT22;540;49.448;8.612;2023-08-30T03:33:40;15.80;99.90
1107;DHT22;540;49.448;8.612;2023-08-30T03:36:12;16.00;99.90
1107;DHT22;540;49.448;8.612;2023-08-30T03:38:40;16.30;99.90
1107;DHT22;540;49.448;8.612;2023-08-30T03:41:10;16.00;99.90
1107;DHT22;540;49.448;8.612;2023-08-30T03:43:38;16.10;99.90
1107;DHT22;540;49.448;8.612;2023-08-30T03:46:06;16.10;99.90
1107;DHT22;540;49.448;8.612;2023-08-30T03:48:36;15.80;99.90
1107;DHT22;540;49.448;8.612;2023-08-30T03:51:03;16.00;99.90
1107;DHT22;540;49.448;8.612;2023-08-30T03:53:31;16.10;99.90
1107;DHT22;540;49.448;8.612;2023-08-30T03:55:59;15.80;99.90
1107;DHT22;540;49.448;8.612;2023-08-30T03:58:28;16.20;99.90
1107;DHT22;540;49.448;8.612;2023-08-30T04:00:57;16.00;99.90
1107;DHT22;540;49.448;8.612;2023-08-30T04:03:24;15.80;99.90
1107;DHT22;540;49.448;8.612;2023-08-30T04:05:55;16.00;99.90
1107;DHT22;540;49.448;8.612;2023-08-30T04:08:23;15.30;99.90
1107;DHT22;540;49.448;8.612;2023-08-30T04:10:52;16.10;99.90
1107;DHT22;540;49.448;8.612;2023-08-30T04:13:20;15.90;99.90
1107;DHT22;540;49.448;8.612;2023-08-30T04:15:50;16.10;99.90
1107;DHT22;540;49.448;8.612;2023-08-30T04:18:18;15.90;99.90
1107;DHT22;540;49.448;8.612;2023-08-30T04:20:47;15.90;99.90
1107;DHT22;540;49.448;8.612;2023-08-30T04:23:15;15.80;99.90
1107;DHT22;540;49.448;8.612;2023-08-30T04:25:44;16.00;99.90
1107;DHT22;540;49.448;8.612;2023-08-30T04:28:12;15.50;99.90
1107;DHT22;540;49.448;8.612;2023-08-30T04:30:40;15.70;99.90
1107;DHT22;540;49.448;8.612;2023-08-30T04:33:09;16.00;99.90
1107;DHT22;540;49.448;8.612;2023-08-30T04:35:37;15.80;99.90
1107;DHT22;540;49.448;8.612;2023-08-30T04:38:05;15.60;99.90
1107;DHT22;540;49.448;8.612;2023-08-30T04:40:33;15.90;99.90
1107;DHT22;540;49.448;8.612;2023-08-30T04:43:01;15.60;99.90
1107;DHT22;540;49.448;8.612;2023-08-30T04:45:29;15.80;99.90
1107;DHT22;540;49.448;8.612;2023-08-30T04:47:58;15.60;99.90
1107;DHT22;540;49.448;8.612;2023-08-30T04:50:27;15.70;99.90
1107;DHT22;540;49.448;8.612;2023-08-30T04:52:55;15.60;99.90
1107;DHT22;540;49.448;8.612;2023-08-30T04:55:24;15.90;99.90
1107;DHT22;540;49.448;8.612;2023-08-30T04:57:51;15.80;99.90
1107;DHT22;540;49.448;8.612;2023-08-30T05:00:19;15.80;99.90
1107;DHT22;540;49.448;8.612;2023-08-30T05:02:47;15.90;99.90
1107;DHT22;540;49.448;8.612;2023-08-30T05:05:15;16.00;99.90
1107;DHT22;540;49.448;8.612;2023-08-30T05:07:45;16.10;99.90
1107;DHT22;540;49.448;8.612;2023-08-30T05:10:12;15.90;99.90
1107;DHT22;540;49.448;8.612;2023-08-30T05:12:40;16.20;99.90
1107;DHT22;540;49.448;8.612;2023-08-30T05:15:10;16.10;99.90
1107;DHT22;540;49.448;8.612;2023-08-30T05:17:38;16.10;99.90
1107;DHT22;540;49.448;8.612;2023-08-30T05:20:07;16.10;99.90
1107;DHT22;540;49.448;8.612;2023-08-30T05:22:35;15.80;99.90
1107;DHT22;540;49.448;8.612;2023-08-30T05:25:05;16.40;99.90
1107;DHT22;540;49.448;8.612;2023-08-30T05:27:33;16.40;99.90
1107;DHT22;540;49.448;8.612;2023-08-30T05:30:00;16.20;99.90
1107;DHT22;540;49.448;8.612;2023-08-30T05:32:29;16.20;99.90
1107;DHT22;540;49.448;8.612;2023-08-30T05:34:58;16.20;99.90
1107;DHT22;540;49.448;8.612;2023-08-30T05:37:26;16.20;99.90
1107;DHT22;540;49.448;8.612;2023-08-30T05:39:54;16.30;99.90
1107;DHT22;540;49.448;8.612;2023-08-30T05:42:23;16.30;99.90
1107;DHT22;540;49.448;8.612;2023-08-30T05:44:50;16.40;99.90
1107;DHT22;540;49.448;8.612;2023-08-30T05:47:18;16.10;99.90
1107;DHT22;540;49.448;8.612;2023-08-30T05:49:46;16.40;99.90
1107;DHT22;540;49.448;8.612;2023-08-30T05:52:15;16.70;99.90
1107;DHT22;540;49.448;8.612;2023-08-30T05:54:44;16.60;99.90
1107;DHT22;540;49.448;8.612;2023-08-30T05:57:12;16.50;99.90
1107;DHT22;540;49.448;8.612;2023-08-30T05:59:41;16.50;99.90
1107;DHT22;540;49.448;8.612;2023-08-30T06:02:09;16.50;99.90
1107;DHT22;540;49.448;8.612;2023-08-30T06:04:37;16.60;99.90
1107;DHT22;540;49.448;8.612;2023-08-30T06:07:05;16.70;99.90
1107;DHT22;540;49.448;8.612;2023-08-30T06:09:33;16.60;99.90
1107;DHT22;540;49.448;8.612;2023-08-30T06:12:00;16.30;99.90
1107;DHT22;540;49.448;8.612;2023-08-30T06:14:28;16.50;99.90
1107;DHT22;540;49.448;8.612;2023-08-30T06:16:58;16.60;99.90
1107;DHT22;540;49.448;8.612;2023-08-30T06:19:25;16.70;99.90
1107;DHT22;540;49.448;8.612;2023-08-30T06:21:53;16.70;99.90
1107;DHT22;540;49.448;8.612;2023-08-30T06:24:21;16.60;99.90
1107;DHT22;540;49.448;8.612;2023-08-30T06:26:49;16.80;99.90
1107;DHT22;540;49.448;8.612;2023-08-30T06:29:17;16.80;99.90
1107;DHT22;540;49.448;8.612;2023-08-30T06:31:45;16.70;99.90
1107;DHT22;540;49.448;8.612;2023-08-30T06:34:14;17.30;99.90
1107;DHT22;540;49.448;8.612;2023-08-30T06:36:43;17.10;99.90
1107;DHT22;540;49.448;8.612;2023-08-30T06:39:11;17.30;99.90
1107;DHT22;540;49.448;8.612;2023-08-30T06:41:38;17.20;99.90
1107;DHT22;540;49.448;8.612;2023-08-30T06:44:06;17.30;99.90
1107;DHT22;540;49.448;8.612;2023-08-30T06:46:34;17.10;99.90
1107;DHT22;540;49.448;8.612;2023-08-30T06:49:02;16.80;99.90
1107;DHT22;540;49.448;8.612;2023-08-30T06:51:31;17.20;99.90
1107;DHT22;540;49.448;8.612;2023-08-30T06:53:59;17.10;99.90
1107;DHT22;540;49.448;8.612;2023-08-30T06:56:27;17.10;99.90
1107;DHT22;540;49.448;8.612;2023-08-30T06:58:55;17.00;99.90
1107;DHT22;540;49.448;8.612;2023-08-30T07:01:23;17.10;99.90
1107;DHT22;540;49.448;8.612;2023-08-30T07:03:50;17.30;99.90
1107;DHT22;540;49.448;8.612;2023-08-30T07:06:19;17.40;99.90
1107;DHT22;540;49.448;8.612;2023-08-30T07:08:48;17.70;99.90
1107;DHT22;540;49.448;8.612;2023-08-30T07:11:16;18.50;99.90
1107;DHT22;540;49.448;8.612;2023-08-30T07:13:59;18.90;99.90
1107;DHT22;540;49.448;8.612;2023-08-30T07:16:27;19.80;99.20
1107;DHT22;540;49.448;8.612;2023-08-30T07:18:54;19.50;98.00
1107;DHT22;540;49.448;8.612;2023-08-30T07:21:22;20.00;96.90
1107;DHT22;540;49.448;8.612;2023-08-30T07:23:52;19.80;96.90
1107;DHT22;540;49.448;8.612;2023-08-30T07:26:19;19.90;96.80
1107;DHT22;540;49.448;8.612;2023-08-30T07:28:47;20.20;96.30
1107;DHT22;540;49.448;8.612;2023-08-30T07:31:15;19.50;96.70
1107;DHT22;540;49.448;8.612;2023-08-30T07:33:45;19.40;97.40
1107;DHT22;540;49.448;8.612;2023-08-30T07:36:13;19.90;96.80
1107;DHT22;540;49.448;8.612;2023-08-30T07:38:40;19.40;97.20
1107;DHT22;540;49.448;8.612;2023-08-30T07:41:09;19.70;97.20
1107;DHT22;540;49.448;8.612;2023-08-30T07:43:38;20.10;96.90
1107;DHT22;540;49.448;8.612;2023-08-30T07:46:06;20.50;94.60
1107;DHT22;540;49.448;8.612;2023-08-30T07:48:34;21.00;93.00
1107;DHT22;540;49.448;8.612;2023-08-30T07:51:02;20.80;92.50
1107;DHT22;540;49.448;8.612;2023-08-30T07:53:31;20.90;92.40
1107;DHT22;540;49.448;8.612;2023-08-30T07:55:58;20.20;92.80
1107;DHT22;540;49.448;8.612;2023-08-30T07:58:27;21.20;92.30
1107;DHT22;540;49.448;8.612;2023-08-30T08:00:55;21.60;91.00
1107;DHT22;540;49.448;8.612;2023-08-30T08:03:24;22.00;89.40
1107;DHT22;540;49.448;8.612;2023-08-30T08:05:55;21.80;87.90
1107;DHT22;540;49.448;8.612;2023-08-30T08:08:24;21.10;90.20
1107;DHT22;540;49.448;8.612;2023-08-30T08:10:53;20.80;91.00
1107;DHT22;540;49.448;8.612;2023-08-30T08:13:22;20.50;92.50
1107;DHT22;540;49.448;8.612;2023-08-30T08:15:55;20.50;93.50
1107;DHT22;540;49.448;8.612;2023-08-30T08:18:24;20.30;92.90
1107;DHT22;540;49.448;8.612;2023-08-30T08:20:54;20.90;92.00
1107;DHT22;540;49.448;8.612;2023-08-30T08:23:23;20.50;91.20
1107;DHT22;540;49.448;8.612;2023-08-30T08:25:57;20.50;92.40
1107;DHT22;540;49.448;8.612;2023-08-30T08:28:26;20.70;92.20
1107;DHT22;540;49.448;8.612;2023-08-30T08:30:57;21.00;91.40
1107;DHT22;540;49.448;8.612;2023-08-30T08:33:26;21.20;90.50
1107;DHT22;540;49.448;8.612;2023-08-30T08:35:53;21.00;91.20
1107;DHT22;540;49.448;8.612;2023-08-30T08:38:21;21.20;90.50
1107;DHT22;540;49.448;8.612;2023-08-30T08:40:50;21.50;89.60
1107;DHT22;540;49.448;8.612;2023-08-30T08:43:20;21.60;88.50
1107;DHT22;540;49.448;8.612;2023-08-30T08:45:49;21.70;88.80
1107;DHT22;540;49.448;8.612;2023-08-30T08:48:19;21.20;89.00
1107;DHT22;540;49.448;8.612;2023-08-30T08:50:48;21.80;87.00
1107;DHT22;540;49.448;8.612;2023-08-30T08:53:16;22.40;85.30
1107;DHT22;540;49.448;8.612;2023-08-30T08:55:45;22.70;82.50
1107;DHT22;540;49.448;8.612;2023-08-30T08:58:14;22.90;80.30
1107;DHT22;540;49.448;8.612;2023-08-30T09:00:42;23.10;78.70
1107;DHT22;540;49.448;8.612;2023-08-30T09:03:11;23.00;79.10
1107;DHT22;540;49.448;8.612;2023-08-30T09:05:43;23.40;78.00
1107;DHT22;540;49.448;8.612;2023-08-30T09:08:14;23.40;76.80
1107;DHT22;540;49.448;8.612;2023-08-30T09:10:43;23.30;76.70
1107;DHT22;540;49.448;8.612;2023-08-30T09:13:11;23.20;77.60
1107;DHT22;540;49.448;8.612;2023-08-30T09:15:39;23.30;77.70
1107;DHT22;540;49.448;8.612;2023-08-30T09:18:14;23.80;75.90
1107;DHT22;540;49.448;8.612;2023-08-30T09:20:44;23.90;75.20
1107;DHT22;540;49.448;8.612;2023-08-30T09:23:18;24.10;74.10
1107;DHT22;540;49.448;8.612;2023-08-30T09:25:47;24.10;73.80
1107;DHT22;540;49.448;8.612;2023-08-30T09:28:15;24.10;73.40
1107;DHT22;540;49.448;8.612;2023-08-30T09:30:49;24.00;72.50
1107;DHT22;540;49.448;8.612;2023-08-30T09:33:20;24.00;71.90
1107;DHT22;540;49.448;8.612;2023-08-30T09:35:49;23.90;72.50
1107;DHT22;540;49.448;8.612;2023-08-30T09:38:18;24.20;71.80
1107;DHT22;540;49.448;8.612;2023-08-30T09:40:46;24.00;71.10
1107;DHT22;540;49.448;8.612;2023-08-30T09:43:18;24.30;71.30
1107;DHT22;540;49.448;8.612;2023-08-30T09:45:48;24.70;70.00
1107;DHT22;540;49.448;8.612;2023-08-30T09:48:17;24.90;69.00
1107;DHT22;540;49.448;8.612;2023-08-30T09:50:53;25.20;68.40
1107;DHT22;540;49.448;8.612;2023-08-30T09:53:21;25.60;66.80
1107;DHT22;540;49.448;8.612;2023-08-30T09:55:52;25.50;65.50
1107;DHT22;540;49.448;8.612;2023-08-30T09:58:21;25.40;65.30
1107;DHT22;540;49.448;8.612;2023-08-30T10:00:50;25.20;64.90
1107;DHT22;540;49.448;8.612;2023-08-30T10:03:19;25.20;66.90
1107;DHT22;540;49.448;8.612;2023-08-30T10:05:59;25.00;65.70
1107;DHT22;540;49.448;8.612;2023-08-30T10:08:30;25.20;64.90
1107;DHT22;540;49.448;8.612;2023-08-30T10:10:59;25.40;63.40
1107;DHT22;540;49.448;8.612;2023-08-30T10:13:30;25.20;61.80
1107;DHT22;540;49.448;8.612;2023-08-30T10:16:01;25.10;63.30
1107;DHT22;540;49.448;8.612;2023-08-30T10:18:32;24.90;64.50
1107;DHT22;540;49.448;8.612;2023-08-30T10:21:07;24.80;64.80
1107;DHT22;540;49.448;8.612;2023-08-30T10:23:40;24.30;64.80
1107;DHT22;540;49.448;8.612;2023-08-30T10:26:08;24.50;64.90
1107;DHT22;540;49.448;8.612;2023-08-30T10:28:36;24.30;64.10
1107;DHT22;540;49.448;8.612;2023-08-30T10:31:05;24.20;65.10
1107;DHT22;540;49.448;8.612;2023-08-30T10:33:46;24.30;65.00
1107;DHT22;540;49.448;8.612;2023-08-30T10:36:21;24.50;63.80
1107;DHT22;540;49.448;8.612;2023-08-30T10:38:50;25.10;63.40
1107;DHT22;540;49.448;8.612;2023-08-30T10:41:22;24.50;64.00
1107;DHT22;540;49.448;8.612;2023-08-30T10:43:51;24.80;64.80
1107;DHT22;540;49.448;8.612;2023-08-30T10:46:31;24.80;64.20
1107;DHT22;540;49.448;8.612;2023-08-30T10:49:10;25.30;63.60
1107;DHT22;540;49.448;8.612;2023-08-30T10:51:42;25.60;61.10
1107;DHT22;540;49.448;8.612;2023-08-30T10:54:11;25.50;59.90
1107;DHT22;540;49.448;8.612;2023-08-30T10:56:46;24.70;60.90
1107;DHT22;540;49.448;8.612;2023-08-30T10:59:19;24.60;61.40
1107;DHT22;540;49.448;8.612;2023-08-30T11:01:48;24.80;61.60
1107;DHT22;540;49.448;8.612;2023-08-30T11:04:16;24.50;62.30
1107;DHT22;540;49.448;8.612;2023-08-30T11:06:46;25.00;62.00
1107;DHT22;540;49.448;8.612;2023-08-30T11:09:15;25.10;61.70
1107;DHT22;540;49.448;8.612;2023-08-30T11:11:45;25.50;60.40
1107;DHT22;540;49.448;8.612;2023-08-30T11:14:13;25.60;60.00
1107;DHT22;540;49.448;8.612;2023-08-30T11:16:42;25.60;56.50
1107;DHT22;540;49.448;8.612;2023-08-30T11:19:10;25.90;57.00
1107;DHT22;540;49.448;8.612;2023-08-30T11:21:40;26.40;57.70
1107;DHT22;540;49.448;8.612;2023-08-30T11:24:11;26.50;55.50
1107;DHT22;540;49.448;8.612;2023-08-30T11:26:39;26.30;55.80
1107;DHT22;540;49.448;8.612;2023-08-30T11:29:08;26.00;54.90
1107;DHT22;540;49.448;8.612;2023-08-30T11:31:36;26.50;54.10
1107;DHT22;540;49.448;8.612;2023-08-30T11:34:04;26.70;53.20
1107;DHT22;540;49.448;8.612;2023-08-30T11:36:34;26.50;54.00
1107;DHT22;540;49.448;8.612;2023-08-30T11:39:03;26.30;55.80
1107;DHT22;540;49.448;8.612;2023-08-30T11:41:32;26.50;55.10
1107;DHT22;540;49.448;8.612;2023-08-30T11:44:00;26.80;54.60
1107;DHT22;540;49.448;8.612;2023-08-30T11:46:30;27.40;53.30
1107;DHT22;540;49.448;8.612;2023-08-30T11:48:58;27.20;52.80
1107;DHT22;540;49.448;8.612;2023-08-30T11:51:27;26.90;54.10
1107;DHT22;540;49.448;8.612;2023-08-30T11:53:55;26.70;54.10
1107;DHT22;540;49.448;8.612;2023-08-30T11:56:24;26.40;54.40
1107;DHT22;540;49.448;8.612;2023-08-30T11:58:53;25.90;56.10
1107;DHT22;540;49.448;8.612;2023-08-30T12:01:21;26.10;55.80
1107;DHT22;540;49.448;8.612;2023-08-30T12:03:49;26.00;54.70
1107;DHT22;540;49.448;8.612;2023-08-30T12:06:17;25.50;54.50
1107;DHT22;540;49.448;8.612;2023-08-30T12:08:45;25.30;56.00
1107;DHT22;540;49.448;8.612;2023-08-30T12:11:19;25.20;57.10
1107;DHT22;540;49.448;8.612;2023-08-30T12:13:48;25.00;58.10
1107;DHT22;540;49.448;8.612;2023-08-30T12:16:18;25.00;58.50
1107;DHT22;540;49.448;8.612;2023-08-30T12:18:47;24.90;57.60
1107;DHT22;540;49.448;8.612;2023-08-30T12:21:15;24.70;58.00
1107;DHT22;540;49.448;8.612;2023-08-30T12:23:43;24.90;57.80
1107;DHT22;540;49.448;8.612;2023-08-30T12:26:11;25.50;57.40
1107;DHT22;540;49.448;8.612;2023-08-30T12:28:39;26.00;55.60
1107;DHT22;540;49.448;8.612;2023-08-30T12:31:07;26.20;54.70
1107;DHT22;540;49.448;8.612;2023-08-30T12:33:37;26.10;53.90
1107;DHT22;540;49.448;8.612;2023-08-30T12:36:07;26.20;53.40
1107;DHT22;540;49.448;8.612;2023-08-30T12:38:35;26.40;52.70
1107;DHT22;540;49.448;8.612;2023-08-30T12:41:02;26.20;53.80
1107;DHT22;540;49.448;8.612;2023-08-30T12:43:30;26.00;54.10
1107;DHT22;540;49.448;8.612;2023-08-30T12:45:58;26.30;53.80
1107;DHT22;540;49.448;8.612;2023-08-30T12:48:26;26.50;53.10
1107;DHT22;540;49.448;8.612;2023-08-30T12:50:55;26.20;53.70
1107;DHT22;540;49.448;8.612;2023-08-30T12:53:24;25.90;54.30
1107;DHT22;540;49.448;8.612;2023-08-30T12:55:51;26.10;54.30
1107;DHT22;540;49.448;8.612;2023-08-30T12:58:20;25.40;53.70
1107;DHT22;540;49.448;8.612;2023-08-30T13:00:47;24.80;54.40
1107;DHT22;540;49.448;8.612;2023-08-30T13:03:17;24.90;54.80
1107;DHT22;540;49.448;8.612;2023-08-30T13:05:46;24.80;55.00
1107;DHT22;540;49.448;8.612;2023-08-30T13:08:15;24.90;56.00
1107;DHT22;540;49.448;8.612;2023-08-30T13:10:43;24.90;55.20
1107;DHT22;540;49.448;8.612;2023-08-30T13:13:11;24.40;56.20
1107;DHT22;540;49.448;8.612;2023-08-30T13:15:40;24.40;55.70
1107;DHT22;540;49.448;8.612;2023-08-30T13:18:08;24.20;55.30
1107;DHT22;540;49.448;8.612;2023-08-30T13:20:38;24.40;55.30
1107;DHT22;540;49.448;8.612;2023-08-30T13:23:06;24.60;54.60
1107;DHT22;540;49.448;8.612;2023-08-30T13:25:38;24.60;54.80
1107;DHT22;540;49.448;8.612;2023-08-30T13:28:06;24.30;54.50
1107;DHT22;540;49.448;8.612;2023-08-30T13:30:34;24.30;54.40
1107;DHT22;540;49.448;8.612;2023-08-30T13:33:02;24.40;54.90
1107;DHT22;540;49.448;8.612;2023-08-30T13:35:30;24.20;55.00
1107;DHT22;540;49.448;8.612;2023-08-30T13:37:58;24.30;54.10
1107;DHT22;540;49.448;8.612;2023-08-30T13:40:26;24.20;54.20
1107;DHT22;540;49.448;8.612;2023-08-30T13:42:55;24.10;53.10
1107;DHT22;540;49.448;8.612;2023-08-30T13:45:23;24.10;54.00
1107;DHT22;540;49.448;8.612;2023-08-30T13:47:50;24.20;53.30
1107;DHT22;540;49.448;8.612;2023-08-30T13:50:21;24.30;52.50
1107;DHT22;540;49.448;8.612;2023-08-30T13:52:49;24.30;52.70
1107;DHT22;540;49.448;8.612;2023-08-30T13:55:17;24.60;52.50
1107;DHT22;540;49.448;8.612;2023-08-30T13:57:45;24.60;53.20
1107;DHT22;540;49.448;8.612;2023-08-30T14:00:15;24.40;53.20
1107;DHT22;540;49.448;8.612;2023-08-30T14:02:43;24.40;54.30
1107;DHT22;540;49.448;8.612;2023-08-30T14:05:11;24.40;54.00
1107;DHT22;540;49.448;8.612;2023-08-30T14:07:39;24.50;52.90
1107;DHT22;540;49.448;8.612;2023-08-30T14:10:07;24.40;51.20
1107;DHT22;540;49.448;8.612;2023-08-30T14:12:35;24.30;52.40
1107;DHT22;540;49.448;8.612;2023-08-30T14:15:03;24.50;53.10
1107;DHT22;540;49.448;8.612;2023-08-30T14:17:33;24.70;52.00
1107;DHT22;540;49.448;8.612;2023-08-30T14:20:01;24.80;51.50
1107;DHT22;540;49.448;8.612;2023-08-30T14:22:29;24.80;50.90
1107;DHT22;540;49.448;8.612;2023-08-30T14:24:57;24.60;51.20
1107;DHT22;540;49.448;8.612;2023-08-30T14:27:38;24.60;50.90
1107;DHT22;540;49.448;8.612;2023-08-30T14:30:09;24.50;50.10
1107;DHT22;540;49.448;8.612;2023-08-30T14:32:39;24.30;50.30
1107;DHT22;540;49.448;8.612;2023-08-30T14:35:08;24.20;49.30
1107;DHT22;540;49.448;8.612;2023-08-30T14:37:36;24.30;50.10
1107;DHT22;540;49.448;8.612;2023-08-30T14:40:05;24.50;49.50
1107;DHT22;540;49.448;8.612;2023-08-30T14:42:33;24.50;49.20
1107;DHT22;540;49.448;8.612;2023-08-30T14:45:01;24.50;49.00
1107;DHT22;540;49.448;8.612;2023-08-30T14:47:32;24.60;48.60
1107;DHT22;540;49.448;8.612;2023-08-30T14:50:02;24.40;49.20
1107;DHT22;540;49.448;8.612;2023-08-30T14:52:30;24.40;49.30
1107;DHT22;540;49.448;8.612;2023-08-30T14:54:58;24.30;49.00
1107;DHT22;540;49.448;8.612;2023-08-30T14:57:26;24.30;49.40
1107;DHT22;540;49.448;8.612;2023-08-30T14:59:54;24.40;49.70
1107;DHT22;540;49.448;8.612;2023-08-30T15:02:22;24.40;48.80
1107;DHT22;540;49.448;8.612;2023-08-30T15:04:50;24.30;49.30
1107;DHT22;540;49.448;8.612;2023-08-30T15:07:19;24.30;49.50
1107;DHT22;540;49.448;8.612;2023-08-30T15:09:47;24.20;49.30
1107;DHT22;540;49.448;8.612;2023-08-30T15:12:16;24.10;49.90
1107;DHT22;540;49.448;8.612;2023-08-30T15:14:43;24.00;50.10
1107;DHT22;540;49.448;8.612;2023-08-30T15:17:13;24.00;49.90
1107;DHT22;540;49.448;8.612;2023-08-30T15:19:42;23.90;49.40
1107;DHT22;540;49.448;8.612;2023-08-30T15:22:10;23.80;50.30
1107;DHT22;540;49.448;8.612;2023-08-30T15:24:39;23.90;50.50
1107;DHT22;540;49.448;8.612;2023-08-30T15:27:07;24.20;50.20
1107;DHT22;540;49.448;8.612;2023-08-30T15:29:35;24.20;49.80
1107;DHT22;540;49.448;8.612;2023-08-30T15:32:03;24.30;49.70
1107;DHT22;540;49.448;8.612;2023-08-30T15:34:31;24.10;50.40
1107;DHT22;540;49.448;8.612;2023-08-30T15:36:59;24.20;50.50
1107;DHT22;540;49.448;8.612;2023-08-30T15:39:27;24.10;50.30
1107;DHT22;540;49.448;8.612;2023-08-30T15:41:56;23.90;49.60
1107;DHT22;540;49.448;8.612;2023-08-30T15:44:24;23.60;49.80
1107;DHT22;540;49.448;8.612;2023-08-30T15:46:52;23.60;50.40
1107;DHT22;540;49.448;8.612;2023-08-30T15:49:19;23.50;50.90
1107;DHT22;540;49.448;8.612;2023-08-30T15:51:47;23.60;51.40
1107;DHT22;540;49.448;8.612;2023-08-30T15:54:15;23.60;51.90
1107;DHT22;540;49.448;8.612;2023-08-30T15:56:43;23.60;52.70
1107;DHT22;540;49.448;8.612;2023-08-30T15:59:13;23.60;51.90
1107;DHT22;540;49.448;8.612;2023-08-30T16:01:41;23.60;52.00
1107;DHT22;540;49.448;8.612;2023-08-30T16:04:09;23.50;52.00
1107;DHT22;540;49.448;8.612;2023-08-30T16:06:37;23.50;52.20
1107;DHT22;540;49.448;8.612;2023-08-30T16:09:05;23.50;52.20
1107;DHT22;540;49.448;8.612;2023-08-30T16:11:33;23.10;52.60
1107;DHT22;540;49.448;8.612;2023-08-30T16:14:01;22.90;53.30
1107;DHT22;540;49.448;8.612;2023-08-30T16:16:33;22.90;54.10
1107;DHT22;540;49.448;8.612;2023-08-30T16:19:01;22.60;54.20
1107;DHT22;540;49.448;8.612;2023-08-30T16:21:29;22.60;54.70
1107;DHT22;540;49.448;8.612;2023-08-30T16:23:57;22.60;55.10
1107;DHT22;540;49.448;8.612;2023-08-30T16:26:26;22.60;55.20
1107;DHT22;540;49.448;8.612;2023-08-30T16:28:54;22.60;54.70